createdAt,value
2018-07-02T00:02:16.951Z,100992.09
2018-07-02T00:07:19.306Z,100997.65
2018-07-02T00:12:14.746Z,100986.95
2018-07-02T00:17:09.465Z,100983.45
2018-07-02T00:22:04.483Z,100988.48
2018-07-02T00:26:59.167Z,100997.57
2018-07-02T00:31:53.930Z,100990.67
2018-07-02T00:36:49.257Z,100983.42
2018-07-02T00:41:44.449Z,100991.95
2018-07-02T00:46:39.216Z,100970.66
2018-07-02T00:51:33.852Z,100968.84
2018-07-02T00:56:28.850Z,100976.23
2018-07-02T01:01:27.728Z,100982.70
2018-07-02T01:06:22.573Z,100979.56
2018-07-02T01:11:17.573Z,100968.89
2018-07-02T01:16:12.545Z,100973.77
2018-07-02T01:21:07.362Z,100976.84
2018-07-02T01:26:02.312Z,100977.23
2018-07-02T01:30:57.753Z,100973.47
2018-07-02T01:35:52.670Z,100983.26
2018-07-02T01:40:47.813Z,100974.62
2018-07-02T01:45:42.626Z,100974.05
2018-07-02T01:50:37.357Z,100976.97
2018-07-02T01:55:32.242Z,100984.04
2018-07-02T02:00:27.057Z,100996.93
2018-07-02T02:05:21.783Z,100995.02
2018-07-02T02:10:16.559Z,100990.13
2018-07-02T02:15:11.528Z,100997.03
2018-07-02T02:20:06.772Z,100991.22
2018-07-02T02:25:01.753Z,100991.84
2018-07-02T02:29:57.180Z,100996.08
2018-07-02T02:34:52.264Z,100995.35
2018-07-02T02:39:46.865Z,100989.75
2018-07-02T02:44:41.884Z,100993.05
2018-07-02T02:49:36.875Z,100989.37
2018-07-02T02:54:31.298Z,100988.39
2018-07-02T02:59:26.348Z,100977.20
2018-07-02T03:04:21.798Z,100979.76
2018-07-02T03:09:16.693Z,100977.09
2018-07-02T03:14:11.366Z,100978.42
2018-07-02T03:19:06.628Z,100975.39
2018-07-02T03:24:01.403Z,100971.51
2018-07-02T03:28:56.240Z,100979.64
2018-07-02T03:33:51.152Z,100983.17
2018-07-02T03:38:45.820Z,100993.86
2018-07-02T03:43:40.638Z,101001.88
2018-07-02T03:48:35.336Z,101014.84
2018-07-02T03:53:30.026Z,101022.86
2018-07-02T03:58:24.897Z,101012.17
2018-07-02T04:03:19.694Z,101007.22
2018-07-02T04:08:14.056Z,101010.01
2018-07-02T04:13:08.970Z,101005.64
2018-07-02T04:18:03.651Z,101010.89
2018-07-02T04:22:58.455Z,101013.09
2018-07-02T04:27:53.834Z,101011.62
2018-07-02T04:32:49.763Z,101019.90
2018-07-02T04:37:44.762Z,101018.92
2018-07-02T04:42:39.502Z,101012.63
2018-07-02T04:47:34.750Z,101022.57
2018-07-02T04:52:30.580Z,101020.06
2018-07-02T04:57:25.236Z,101022.84
2018-07-02T05:02:20.075Z,101012.98
2018-07-02T05:07:14.539Z,101015.73
2018-07-02T05:12:11.096Z,101016.63
2018-07-02T05:17:06.833Z,101006.32
2018-07-02T05:22:01.808Z,100996.45
2018-07-02T05:26:56.261Z,100994.91
2018-07-02T05:31:50.863Z,100993.30
2018-07-02T05:36:45.712Z,100992.03
2018-07-02T05:41:40.642Z,100989.08
2018-07-02T05:46:35.352Z,100985.48
2018-07-02T05:51:30.076Z,100987.06
2018-07-02T05:56:24.887Z,100987.03
2018-07-02T06:01:19.644Z,100993.36
2018-07-02T06:06:14.720Z,100989.23
2018-07-02T06:11:09.672Z,100994.97
2018-07-02T06:16:05.251Z,101007.20
2018-07-02T06:21:00.646Z,100993.99
2018-07-02T06:25:55.630Z,101005.37
2018-07-02T06:30:50.509Z,101004.36
2018-07-02T06:35:45.620Z,101009.91
2018-07-02T06:40:40.312Z,101003.97
2018-07-02T06:45:35.762Z,101015.19
2018-07-02T06:50:30.653Z,101017.77
2018-07-02T06:55:28.960Z,101015.48
2018-07-02T07:00:23.941Z,101019.33
2018-07-02T07:05:19.312Z,101025.55
2018-07-02T07:10:14.000Z,101027.44
2018-07-02T07:15:10.082Z,101031.59
2018-07-02T07:20:05.733Z,101033.13
2018-07-02T07:25:01.335Z,101029.80
2018-07-02T07:29:56.535Z,101030.42
2018-07-02T07:34:52.248Z,101040.87
2018-07-02T07:39:46.779Z,101026.08
2018-07-02T07:44:42.407Z,101034.91
2018-07-02T07:49:37.355Z,101036.86
2018-07-02T07:54:32.042Z,101027.27
2018-07-02T07:59:29.189Z,101033.11
2018-07-02T08:04:24.015Z,101034.42
2018-07-02T08:09:18.742Z,101035.16
2018-07-02T08:14:13.468Z,101027.86
2018-07-02T08:19:08.583Z,101020.77
2018-07-02T08:24:03.838Z,101035.57
2018-07-02T08:28:58.526Z,101029.33
2018-07-02T08:33:53.697Z,101029.15
2018-07-02T08:38:48.698Z,101029.16
2018-07-02T08:43:43.378Z,101020.09
2018-07-02T08:48:38.290Z,101011.37
2018-07-02T08:53:33.008Z,101008.83
2018-07-02T08:58:27.880Z,101020.73
2018-07-02T09:03:22.592Z,101005.62
2018-07-02T09:08:17.522Z,101013.88
2018-07-02T09:13:12.459Z,101016.27
2018-07-02T09:18:07.280Z,101019.06
2018-07-02T09:23:02.109Z,101025.77
2018-07-02T09:27:56.884Z,101022.97
2018-07-02T09:32:51.766Z,101028.94
2018-07-02T09:37:46.665Z,101013.25
2018-07-02T09:42:41.464Z,101009.76
2018-07-02T09:47:36.177Z,101004.76
2018-07-02T09:52:30.901Z,101008.31
2018-07-02T09:57:25.609Z,100992.72
2018-07-02T10:02:20.548Z,100999.02
2018-07-02T10:07:15.250Z,100994.50
2018-07-02T10:12:10.188Z,101001.27
2018-07-02T10:17:04.891Z,100988.41
2018-07-02T10:22:00.086Z,100990.06
2018-07-02T10:26:54.618Z,100986.67
2018-07-02T10:31:49.522Z,100982.83
2018-07-02T10:36:44.128Z,100971.52
2018-07-02T10:41:39.460Z,100976.88
2018-07-02T10:46:34.039Z,100971.73
2018-07-02T10:51:28.524Z,100969.95
2018-07-02T10:56:23.440Z,100984.45
2018-07-02T11:01:18.006Z,100960.03
2018-07-02T11:06:12.620Z,100968.05
2018-07-02T11:11:07.308Z,100968.84
2018-07-02T11:16:01.781Z,100964.47
2018-07-02T11:20:56.242Z,100980.31
2018-07-02T11:25:51.531Z,100951.64
2018-07-02T11:30:49.048Z,100961.44
2018-07-02T11:35:43.500Z,100947.12
2018-07-02T11:40:37.962Z,100958.28
2018-07-02T11:45:32.488Z,100949.10
2018-07-02T11:50:27.189Z,100924.84
2018-07-02T11:55:21.646Z,100943.02
2018-07-02T12:00:16.123Z,100940.11
2018-07-02T12:05:10.564Z,100939.63
2018-07-02T12:10:05.091Z,100938.79
2018-07-02T12:14:59.961Z,100942.27
2018-07-02T12:19:54.426Z,100946.34
2018-07-02T12:24:48.845Z,100946.34
2018-07-02T12:29:43.500Z,100934.43
2018-07-02T12:34:37.937Z,100932.57
2018-07-02T12:39:32.764Z,100935.13
2018-07-02T12:44:27.992Z,100932.50
2018-07-02T12:49:23.493Z,100931.16
2018-07-02T12:54:18.574Z,100928.29
2018-07-02T12:59:14.202Z,100932.25
2018-07-02T13:04:09.307Z,100926.09
2018-07-02T13:09:07.459Z,100930.23
2018-07-02T13:14:02.002Z,100929.42
2018-07-02T13:18:56.628Z,100926.23
2018-07-02T13:23:51.458Z,100918.98
2018-07-02T13:28:47.212Z,100909.16
2018-07-02T13:33:42.508Z,100914.59
2018-07-02T13:38:37.991Z,100916.42
2018-07-02T13:43:33.049Z,100908.14
2018-07-02T13:48:28.033Z,100901.53
2018-07-02T13:53:22.999Z,100901.52
2018-07-02T13:58:18.255Z,100897.24
2018-07-02T14:03:13.500Z,100892.86
2018-07-02T14:08:08.274Z,100885.90
2018-07-02T14:13:03.544Z,100880.31
2018-07-02T14:18:00.766Z,100880.27
2018-07-02T14:22:57.249Z,100871.24
2018-07-02T14:27:51.774Z,100871.84
2018-07-02T14:32:47.523Z,100857.61
2018-07-02T14:37:43.345Z,100861.54
2018-07-02T14:42:38.279Z,100855.73
2018-07-02T14:47:33.260Z,100856.86
2018-07-02T14:52:28.590Z,100854.69
2018-07-02T14:57:23.098Z,100846.96
2018-07-02T15:02:17.898Z,100834.95
2018-07-02T15:07:12.833Z,100836.63
2018-07-02T15:12:07.888Z,100845.06
2018-07-02T15:17:03.024Z,100837.73
2018-07-02T15:21:57.746Z,100857.34
2018-07-02T16:00:11.392Z,100848.08
2018-07-02T16:38:27.959Z,100836.45
2018-07-02T16:43:22.488Z,100831.92
2018-07-02T16:48:17.268Z,100831.61
2018-07-02T16:53:11.866Z,100837.05
2018-07-02T16:58:06.741Z,100825.41
2018-07-02T17:03:01.216Z,100833.67
2018-07-02T17:07:55.834Z,100828.29
2018-07-02T17:12:51.026Z,100824.20
2018-07-02T17:17:45.716Z,100822.42
2018-07-02T17:22:40.613Z,100823.73
2018-07-02T17:27:35.453Z,100823.63
2018-07-02T17:32:30.278Z,100824.98
2018-07-02T17:37:24.931Z,100833.25
2018-07-02T17:42:20.083Z,100825.44
2018-07-02T17:47:14.820Z,100834.20
2018-07-02T17:52:09.297Z,100843.37
2018-07-02T17:57:04.589Z,100841.77
2018-07-02T18:01:59.062Z,100835.01
2018-07-02T18:06:53.866Z,100842.83
2018-07-02T18:11:48.373Z,100845.96
2018-07-02T18:16:43.136Z,100846.44
2018-07-02T18:21:37.831Z,100846.89
2018-07-02T18:26:32.345Z,100846.94
2018-07-02T18:31:27.540Z,100853.87
2018-07-02T18:36:22.288Z,100861.16
2018-07-02T18:41:16.993Z,100861.22
2018-07-02T18:46:12.103Z,100862.40
2018-07-02T18:51:07.138Z,100864.72
2018-07-02T18:56:02.353Z,100876.49
2018-07-02T19:00:57.398Z,100871.18
2018-07-02T19:05:52.316Z,100878.38
2018-07-02T19:10:46.936Z,100884.91
2018-07-02T19:15:41.477Z,100880.42
2018-07-02T19:20:36.353Z,100882.69
2018-07-02T19:25:30.947Z,100892.19
2018-07-02T19:30:25.913Z,100896.12
2018-07-02T19:35:20.868Z,100900.37
2018-07-02T19:40:15.731Z,100912.06
2018-07-02T19:45:10.221Z,100919.52
2018-07-02T19:50:05.843Z,100931.35
2018-07-02T19:55:02.018Z,100934.37
2018-07-02T19:59:57.068Z,100943.14
2018-07-02T20:04:51.804Z,100947.52
2018-07-02T20:09:46.342Z,100941.57
2018-07-02T20:14:41.230Z,100962.30
2018-07-02T20:19:35.736Z,100961.75
2018-07-02T20:24:30.416Z,100961.18
2018-07-02T20:29:25.152Z,100967.39
2018-07-02T20:34:19.655Z,100971.06
2018-07-02T20:39:14.118Z,100975.02
2018-07-02T20:44:09.469Z,100974.76
2018-07-02T20:49:04.554Z,100977.89
2018-07-02T20:53:59.419Z,100982.20
2018-07-02T20:58:54.830Z,100985.30
2018-07-02T21:03:49.921Z,100986.56
2018-07-02T21:08:45.267Z,100986.16
2018-07-02T21:13:39.878Z,100988.56
2018-07-02T21:18:37.790Z,100991.12
2018-07-02T21:23:32.567Z,100996.61
2018-07-02T21:28:27.807Z,101004.70
2018-07-02T21:33:22.522Z,101007.97
2018-07-02T21:38:17.831Z,101013.20
2018-07-02T21:43:13.697Z,101014.86
2018-07-02T21:48:09.054Z,101023.31
2018-07-02T21:53:03.769Z,101025.29
2018-07-02T21:57:59.176Z,101028.64
2018-07-02T22:02:54.019Z,101029.99
2018-07-02T22:07:48.546Z,101030.14
2018-07-02T22:12:43.047Z,101042.88
2018-07-02T22:17:37.614Z,101041.98
2018-07-02T22:22:33.281Z,101052.61
2018-07-02T22:27:28.013Z,101041.38
2018-07-02T22:32:22.711Z,101052.58
2018-07-02T22:37:18.203Z,101053.27
2018-07-02T22:42:12.721Z,101054.19
2018-07-02T22:47:07.918Z,101058.08
2018-07-02T22:52:04.424Z,101052.08
2018-07-02T22:56:58.975Z,101050.25
2018-07-02T23:01:53.749Z,101054.85
2018-07-02T23:06:48.938Z,101061.63
2018-07-02T23:11:43.540Z,101070.11
2018-07-02T23:16:38.248Z,101069.27
2018-07-02T23:21:33.096Z,101075.59
2018-07-02T23:26:27.573Z,101072.88
2018-07-02T23:31:22.206Z,101068.97
2018-07-02T23:36:16.872Z,101082.84
2018-07-02T23:41:11.329Z,101074.75
2018-07-02T23:46:05.832Z,101084.38
2018-07-02T23:51:00.702Z,101095.62
2018-07-02T23:55:55.571Z,101092.34
